createdAt,value
2018-09-26T00:01:37.515Z,81.60
2018-09-26T00:04:09.449Z,82.20
2018-09-26T00:06:37.693Z,81.80
2018-09-26T00:09:09.683Z,82.00
2018-09-26T00:11:37.937Z,81.70
2018-09-26T00:14:06.243Z,82.10
2018-09-26T00:16:34.542Z,81.80
2018-09-26T00:19:02.813Z,81.80
2018-09-26T00:21:31.065Z,81.80
2018-09-26T00:23:59.393Z,81.80
2018-09-26T00:26:27.675Z,82.00
2018-09-26T00:28:55.923Z,82.00
2018-09-26T00:31:24.366Z,82.90
2018-09-26T00:33:52.907Z,82.10
2018-09-26T00:36:21.223Z,82.20
2018-09-26T00:38:49.397Z,82.30
2018-09-26T00:41:17.641Z,82.20
2018-09-26T00:43:45.895Z,82.30
2018-09-26T00:46:14.145Z,82.20
2018-09-26T00:48:42.410Z,82.30
2018-09-26T00:51:10.673Z,82.40
2018-09-26T00:53:38.914Z,82.20
2018-09-26T00:56:07.758Z,82.50
2018-09-26T00:58:35.991Z,82.50
2018-09-26T01:01:04.257Z,82.50
2018-09-26T01:03:32.507Z,82.60
2018-09-26T01:06:00.739Z,82.70
2018-09-26T01:08:28.963Z,82.70
2018-09-26T01:10:57.256Z,82.70
2018-09-26T01:13:25.558Z,83.00
2018-09-26T01:15:53.782Z,83.00
2018-09-26T01:18:22.718Z,82.90
2018-09-26T01:20:51.566Z,82.90
2018-09-26T01:23:19.835Z,83.20
2018-09-26T01:25:48.755Z,83.00
2018-09-26T01:28:16.997Z,83.10
2018-09-26T01:30:45.228Z,83.10
2018-09-26T01:33:13.460Z,83.10
2018-09-26T01:35:41.728Z,83.10
2018-09-26T01:38:09.962Z,83.10
2018-09-26T01:40:38.207Z,83.10
2018-09-26T01:43:06.474Z,83.10
2018-09-26T01:45:34.736Z,82.90
2018-09-26T01:48:02.998Z,83.00
2018-09-26T01:50:31.266Z,82.90
2018-09-26T01:52:59.486Z,82.90
2018-09-26T01:55:27.763Z,83.00
2018-09-26T01:57:56.083Z,82.90
2018-09-26T02:00:24.332Z,82.90
2018-09-26T02:02:52.826Z,83.10
2018-09-26T02:05:21.090Z,83.20
2018-09-26T02:07:49.317Z,83.00
2018-09-26T02:10:17.562Z,83.30
2018-09-26T02:12:45.813Z,83.10
2018-09-26T02:15:14.038Z,83.10
2018-09-26T02:17:42.314Z,83.10
2018-09-26T02:20:10.590Z,83.20
2018-09-26T02:22:38.822Z,84.10
2018-09-26T02:25:07.097Z,83.60
2018-09-26T02:27:35.340Z,83.50
2018-09-26T02:30:03.614Z,83.50
2018-09-26T02:32:31.865Z,83.70
2018-09-26T02:35:00.115Z,83.70
2018-09-26T02:37:28.631Z,83.80
2018-09-26T02:39:56.880Z,83.90
2018-09-26T02:42:25.137Z,84.20
2018-09-26T02:44:53.388Z,84.10
2018-09-26T02:47:21.641Z,84.30
2018-09-26T02:49:49.878Z,84.30
2018-09-26T02:52:18.155Z,84.30
2018-09-26T02:54:46.422Z,84.30
2018-09-26T02:57:14.645Z,84.10
2018-09-26T02:59:42.866Z,84.10
2018-09-26T03:02:11.133Z,83.90
2018-09-26T03:04:39.388Z,84.10
2018-09-26T03:07:08.201Z,84.50
2018-09-26T03:09:36.504Z,84.40
2018-09-26T03:12:04.731Z,84.40
2018-09-26T03:14:32.982Z,84.40
2018-09-26T03:17:01.232Z,84.30
2018-09-26T03:19:29.461Z,84.70
2018-09-26T03:21:57.719Z,84.30
2018-09-26T03:24:26.851Z,84.40
2018-09-26T03:26:55.081Z,84.40
2018-09-26T03:29:23.343Z,84.50
2018-09-26T03:31:51.649Z,84.40
2018-09-26T03:34:19.870Z,85.10
2018-09-26T03:36:48.085Z,84.60
2018-09-26T03:39:16.332Z,84.60
2018-09-26T03:41:44.599Z,84.60
2018-09-26T03:44:12.829Z,84.70
2018-09-26T03:46:41.134Z,84.60
2018-09-26T03:49:09.394Z,85.00
2018-09-26T03:51:37.630Z,84.90
2018-09-26T03:54:06.774Z,85.40
2018-09-26T03:56:35.017Z,85.40
2018-09-26T03:59:03.279Z,85.20
2018-09-26T04:01:31.570Z,85.20
2018-09-26T04:03:59.822Z,85.10
2018-09-26T04:06:28.056Z,85.20
2018-09-26T04:08:56.300Z,85.00
2018-09-26T04:11:24.595Z,85.10
2018-09-26T04:13:52.883Z,85.20
2018-09-26T04:16:21.127Z,85.10
2018-09-26T04:18:49.406Z,85.00
2018-09-26T04:21:17.633Z,85.00
2018-09-26T04:23:46.135Z,85.10
2018-09-26T04:26:14.425Z,85.30
2018-09-26T04:28:42.610Z,85.30
2018-09-26T04:31:10.841Z,85.30
2018-09-26T04:33:39.191Z,85.60
2018-09-26T04:36:07.389Z,85.40
2018-09-26T04:38:35.981Z,85.70
2018-09-26T04:41:04.175Z,85.80
2018-09-26T04:43:32.433Z,86.00
2018-09-26T04:46:00.954Z,85.90
2018-09-26T04:48:29.225Z,86.00
2018-09-26T04:50:57.655Z,86.20
2018-09-26T04:53:26.369Z,86.00
2018-09-26T04:55:54.627Z,86.00
2018-09-26T04:58:22.926Z,86.40
2018-09-26T05:00:51.132Z,86.10
2018-09-26T05:03:19.506Z,86.30
2018-09-26T05:05:47.754Z,86.20
2018-09-26T05:08:16.039Z,86.20
2018-09-26T05:10:44.253Z,86.00
2018-09-26T05:13:12.511Z,86.30
2018-09-26T05:15:40.765Z,86.30
2018-09-26T05:18:09.074Z,86.40
2018-09-26T05:20:37.341Z,86.60
2018-09-26T05:23:06.012Z,86.40
2018-09-26T05:25:34.273Z,86.40
2018-09-26T05:28:02.632Z,86.60
2018-09-26T05:30:30.976Z,86.50
2018-09-26T05:32:59.589Z,86.50
2018-09-26T05:35:27.895Z,86.10
2018-09-26T05:37:56.230Z,86.90
2018-09-26T05:40:24.490Z,86.80
2018-09-26T05:42:52.786Z,86.90
2018-09-26T05:45:21.154Z,86.60
2018-09-26T05:47:49.455Z,86.70
2018-09-26T05:50:17.753Z,86.90
2018-09-26T05:52:46.051Z,87.10
2018-09-26T05:55:14.811Z,87.20
2018-09-26T05:57:43.066Z,87.00
2018-09-26T06:00:11.370Z,87.10
2018-09-26T06:02:39.641Z,87.00
2018-09-26T06:05:08.096Z,87.20
2018-09-26T06:07:36.462Z,87.20
2018-09-26T06:10:04.808Z,87.50
2018-09-26T06:12:33.489Z,87.30
2018-09-26T06:15:01.767Z,87.50
2018-09-26T06:17:30.994Z,87.80
2018-09-26T06:19:59.256Z,87.80
2018-09-26T06:22:28.185Z,87.80
2018-09-26T06:24:56.426Z,88.00
2018-09-26T06:27:24.737Z,88.20
2018-09-26T06:29:52.988Z,88.10
2018-09-26T06:32:21.246Z,88.10
2018-09-26T06:34:49.525Z,88.30
2018-09-26T06:37:17.734Z,88.60
2018-09-26T06:39:45.989Z,89.60
2018-09-26T06:42:14.253Z,88.70
2018-09-26T06:44:42.553Z,88.50
2018-09-26T06:47:10.786Z,88.50
2018-09-26T06:49:39.064Z,88.20
2018-09-26T06:52:07.384Z,88.10
2018-09-26T06:54:35.664Z,88.50
2018-09-26T06:57:03.981Z,88.40
2018-09-26T06:59:32.234Z,89.00
2018-09-26T07:02:00.499Z,88.90
2018-09-26T07:04:28.764Z,88.70
2018-09-26T07:06:57.041Z,89.40
2018-09-26T07:09:26.829Z,89.20
2018-09-26T07:11:55.068Z,89.30
2018-09-26T07:14:23.331Z,88.80
2018-09-26T07:16:51.568Z,89.20
2018-09-26T07:19:19.813Z,89.40
2018-09-26T07:21:48.081Z,89.40
2018-09-26T07:24:16.342Z,90.00
2018-09-26T07:26:44.604Z,89.90
2018-09-26T07:29:12.862Z,90.10
2018-09-26T07:31:41.084Z,89.90
2018-09-26T07:34:09.501Z,90.30
2018-09-26T07:36:38.256Z,90.40
2018-09-26T07:39:09.189Z,90.60
2018-09-26T07:41:37.868Z,90.50
2018-09-26T07:44:06.213Z,90.90
2018-09-26T07:46:34.476Z,90.60
2018-09-26T07:49:02.757Z,90.40
2018-09-26T07:51:31.383Z,90.60
2018-09-26T07:53:59.622Z,90.70
2018-09-26T07:56:27.892Z,90.60
2018-09-26T07:58:56.141Z,90.40
2018-09-26T08:01:24.419Z,90.50
2018-09-26T08:03:52.710Z,90.30
2018-09-26T08:06:20.964Z,90.60
2018-09-26T08:08:49.195Z,90.40
2018-09-26T08:11:17.478Z,90.40
2018-09-26T08:13:45.734Z,90.50
2018-09-26T08:16:14.053Z,90.20
2018-09-26T08:18:42.352Z,90.30
2018-09-26T08:21:10.547Z,90.00
2018-09-26T08:23:38.838Z,89.80
2018-09-26T08:26:07.136Z,90.00
2018-09-26T08:28:53.527Z,89.70
2018-09-26T08:31:32.746Z,89.00
2018-09-26T08:37:23.554Z,88.20
2018-09-26T08:42:49.745Z,88.30
2018-09-26T08:45:29.822Z,87.90
2018-09-26T08:48:11.898Z,87.80
2018-09-26T08:50:45.688Z,87.30
2018-09-26T08:53:19.541Z,88.30
2018-09-26T08:55:55.098Z,88.00
2018-09-26T08:58:41.106Z,87.60
2018-09-26T09:01:14.917Z,85.90
2018-09-26T09:09:29.853Z,85.80
2018-09-26T09:12:00.587Z,85.80
2018-09-26T09:14:30.881Z,85.60
2018-09-26T09:16:59.064Z,84.80
2018-09-26T09:19:33.025Z,84.90
2018-09-26T09:22:04.727Z,84.40
2018-09-26T09:24:34.357Z,83.20
2018-09-26T09:27:13.658Z,83.80
2018-09-26T09:29:44.240Z,83.90
2018-09-26T09:32:18.087Z,83.90
2018-09-26T09:34:57.210Z,84.50
2018-09-26T09:37:25.595Z,83.30
2018-09-26T09:40:08.391Z,83.50
2018-09-26T09:43:01.982Z,82.80
2018-09-26T09:46:25.766Z,82.60
2018-09-26T09:51:41.778Z,82.30
2018-09-26T09:54:32.180Z,82.60
2018-09-26T09:57:33.950Z,82.50
2018-09-26T10:03:24.273Z,81.70
2018-09-26T10:06:20.473Z,81.70
2018-09-26T10:09:26.417Z,81.20
2018-09-26T10:15:48.998Z,82.20
2018-09-26T10:18:20.416Z,81.00
2018-09-26T10:20:52.302Z,80.60
2018-09-26T10:23:20.617Z,81.40
2018-09-26T10:25:48.871Z,81.30
2018-09-26T10:28:18.010Z,81.50
2018-09-26T10:30:46.252Z,81.80
2018-09-26T10:33:14.520Z,81.70
2018-09-26T10:35:43.287Z,81.70
2018-09-26T10:38:11.606Z,82.10
2018-09-26T10:40:40.145Z,81.70
2018-09-26T10:43:08.403Z,81.60
2018-09-26T10:45:36.626Z,81.70
2018-09-26T10:48:04.873Z,81.30
2018-09-26T10:50:33.156Z,81.40
2018-09-26T10:53:01.380Z,82.10
2018-09-26T10:55:29.672Z,82.00
2018-09-26T10:57:57.950Z,82.10
2018-09-26T11:00:26.402Z,80.90
2018-09-26T11:02:54.674Z,81.20
2018-09-26T11:05:22.950Z,81.60
2018-09-26T11:07:51.228Z,81.20
2018-09-26T11:10:26.255Z,81.60
2018-09-26T11:12:54.467Z,81.70
2018-09-26T11:15:22.792Z,81.10
2018-09-26T11:17:51.284Z,81.40
2018-09-26T11:20:19.590Z,80.60
2018-09-26T11:22:47.834Z,81.10
2018-09-26T11:25:16.149Z,81.20
2018-09-26T11:27:44.398Z,81.00
2018-09-26T11:30:12.674Z,81.20
2018-09-26T11:32:40.943Z,80.90
2018-09-26T11:35:09.210Z,81.20
2018-09-26T11:37:37.471Z,81.30
2018-09-26T11:40:05.855Z,79.90
2018-09-26T11:42:34.149Z,80.30
2018-09-26T11:45:02.403Z,80.50
2018-09-26T11:47:30.741Z,80.70
2018-09-26T11:49:58.991Z,80.90
2018-09-26T11:52:27.349Z,80.70
2018-09-26T11:54:57.016Z,80.10
2018-09-26T11:57:25.697Z,80.00
2018-09-26T11:59:53.971Z,79.90
2018-09-26T12:02:22.312Z,79.70
2018-09-26T12:04:50.517Z,79.90
2018-09-26T12:07:18.803Z,79.50
2018-09-26T12:09:47.050Z,79.00
2018-09-26T12:12:15.390Z,78.70
2018-09-26T12:14:44.194Z,79.70
2018-09-26T12:17:12.499Z,79.40
2018-09-26T12:19:41.083Z,79.70
2018-09-26T12:22:09.444Z,79.80
2018-09-26T12:24:37.614Z,79.90
2018-09-26T12:27:06.440Z,79.60
2018-09-26T12:29:34.775Z,79.80
2018-09-26T12:32:03.075Z,78.90
2018-09-26T12:34:31.344Z,79.00
2018-09-26T12:36:59.608Z,78.20
2018-09-26T12:39:27.853Z,78.70
2018-09-26T12:41:56.132Z,79.20
2018-09-26T12:44:24.606Z,78.80
2018-09-26T12:46:52.856Z,78.80
2018-09-26T12:49:21.112Z,79.20
2018-09-26T12:51:49.357Z,78.70
2018-09-26T12:54:18.786Z,78.90
2018-09-26T12:56:47.117Z,78.70
2018-09-26T12:59:15.661Z,78.30
2018-09-26T13:01:44.030Z,78.40
2018-09-26T13:06:53.190Z,78.90
2018-09-26T13:09:21.460Z,79.20
2018-09-26T13:11:49.753Z,78.30
2018-09-26T13:14:21.054Z,78.40
2018-09-26T13:16:52.252Z,78.30
2018-09-26T13:19:24.662Z,77.30
2018-09-26T13:21:55.000Z,77.70
2018-09-26T13:24:25.289Z,77.40
2018-09-26T13:26:55.182Z,77.00
2018-09-26T13:29:25.674Z,76.80
2018-09-26T13:32:25.926Z,77.70
2018-09-26T13:35:35.356Z,76.70
2018-09-26T13:38:31.535Z,76.50
2018-09-26T13:41:10.805Z,76.80
2018-09-26T13:43:48.817Z,75.20
2018-09-26T13:46:24.872Z,75.00
2018-09-26T13:49:08.455Z,75.70
2018-09-26T13:51:49.121Z,73.40
2018-09-26T13:54:37.134Z,71.10
2018-09-26T13:57:27.957Z,72.10
2018-09-26T14:06:34.330Z,73.70
2018-09-26T14:13:26.174Z,70.90
2018-09-26T14:15:54.493Z,70.70
2018-09-26T14:18:22.933Z,70.30
2018-09-26T14:20:51.193Z,71.90
2018-09-26T14:23:19.637Z,70.00
2018-09-26T14:25:47.975Z,70.90
2018-09-26T14:28:16.510Z,71.70
2018-09-26T14:30:44.956Z,71.70
2018-09-26T14:33:13.833Z,70.70
2018-09-26T14:35:42.804Z,71.00
2018-09-26T14:38:11.566Z,70.80
2018-09-26T14:40:40.370Z,70.10
2018-09-26T14:43:09.191Z,69.90
2018-09-26T14:45:37.897Z,70.00
2018-09-26T14:48:06.332Z,70.70
2018-09-26T14:50:35.079Z,71.00
2018-09-26T14:53:03.790Z,70.50
2018-09-26T14:55:32.955Z,70.60
2018-09-26T14:58:01.391Z,70.30
2018-09-26T15:00:29.842Z,70.80
2018-09-26T15:02:58.411Z,71.00
2018-09-26T15:05:33.266Z,70.80
2018-09-26T15:08:01.620Z,71.10
2018-09-26T15:10:30.448Z,70.50
2018-09-26T15:12:59.016Z,70.30
2018-09-26T15:15:27.493Z,70.70
2018-09-26T15:17:55.883Z,71.00
2018-09-26T15:20:24.501Z,70.80
2018-09-26T15:22:52.757Z,70.00
2018-09-26T15:25:21.267Z,69.20
2018-09-26T15:27:49.641Z,70.70
2018-09-26T15:30:18.160Z,71.30
2018-09-26T15:32:46.875Z,70.70
2018-09-26T15:35:16.028Z,70.10
2018-09-26T15:37:44.506Z,69.40
2018-09-26T15:40:13.129Z,69.90
2018-09-26T15:42:41.609Z,69.50
2018-09-26T15:45:10.010Z,69.80
2018-09-26T15:47:38.418Z,69.70
2018-09-26T15:50:07.060Z,70.50
2018-09-26T15:52:35.495Z,70.10
2018-09-26T15:55:03.820Z,70.40
2018-09-26T15:57:32.120Z,70.60
2018-09-26T16:00:00.494Z,70.80
2018-09-26T16:02:28.857Z,70.60
2018-09-26T16:04:57.309Z,71.10
2018-09-26T16:07:25.632Z,70.70
2018-09-26T16:09:54.006Z,70.70
2018-09-26T16:12:22.591Z,70.30
2018-09-26T16:14:50.873Z,70.50
2018-09-26T16:17:19.395Z,70.70
2018-09-26T16:19:47.879Z,70.60
2018-09-26T16:22:16.268Z,70.60
2018-09-26T16:24:44.636Z,70.10
2018-09-26T16:27:12.941Z,71.00
2018-09-26T16:29:41.260Z,70.70
2018-09-26T16:32:09.723Z,71.00
2018-09-26T16:34:37.971Z,70.60
2018-09-26T16:37:06.251Z,69.60
2018-09-26T16:39:34.738Z,70.40
2018-09-26T16:42:03.147Z,70.60
2018-09-26T16:44:31.407Z,71.30
2018-09-26T16:46:59.678Z,71.40
2018-09-26T16:49:28.041Z,71.30
2018-09-26T16:51:56.312Z,71.50
2018-09-26T16:54:24.709Z,71.80
2018-09-26T16:56:52.975Z,71.50
2018-09-26T16:59:21.290Z,71.90
2018-09-26T17:01:49.642Z,71.70
2018-09-26T17:04:18.705Z,71.60
2018-09-26T17:06:47.018Z,71.70
2018-09-26T17:09:15.358Z,71.40
2018-09-26T17:11:43.725Z,72.10
2018-09-26T17:14:12.475Z,72.10
2018-09-26T17:16:40.845Z,72.20
2018-09-26T17:19:09.364Z,72.30
2018-09-26T17:21:37.716Z,72.50
2018-09-26T17:24:06.037Z,72.20
2018-09-26T17:26:34.678Z,72.70
2018-09-26T17:32:01.771Z,72.80
2018-09-26T17:34:30.098Z,72.80
2018-09-26T17:39:52.400Z,73.00
2018-09-26T17:42:20.889Z,73.10
2018-09-26T17:44:49.158Z,73.10
2018-09-26T17:47:17.430Z,73.50
2018-09-26T17:49:45.691Z,73.90
2018-09-26T17:55:12.807Z,74.20
2018-09-26T17:57:41.203Z,74.30
2018-09-26T18:00:09.767Z,74.20
2018-09-26T18:02:38.378Z,74.40
2018-09-26T18:05:06.837Z,75.00
2018-09-26T18:07:35.208Z,75.00
2018-09-26T18:10:03.560Z,75.10
2018-09-26T18:12:33.912Z,75.20
2018-09-26T18:15:02.228Z,76.30
2018-09-26T18:17:30.660Z,75.40
2018-09-26T18:19:59.083Z,75.20
2018-09-26T18:22:27.839Z,75.30
2018-09-26T18:24:56.283Z,75.10
2018-09-26T18:27:25.187Z,75.20
2018-09-26T18:29:53.470Z,75.20
2018-09-26T18:32:23.366Z,75.30
2018-09-26T18:34:51.968Z,75.40
2018-09-26T18:37:21.300Z,75.50
2018-09-26T18:39:50.244Z,75.40
2018-09-26T18:42:19.753Z,75.70
2018-09-26T18:44:48.447Z,75.90
2018-09-26T18:47:18.140Z,76.00
2018-09-26T18:49:47.656Z,76.10
2018-09-26T18:52:16.074Z,76.10
2018-09-26T18:54:44.631Z,76.50
2018-09-26T18:57:15.361Z,76.60
2018-09-26T18:59:44.261Z,76.80
2018-09-26T19:02:13.236Z,76.70
2018-09-26T19:04:42.080Z,76.90
2018-09-26T19:07:11.662Z,77.10
2018-09-26T19:09:41.086Z,77.20
2018-09-26T19:12:11.451Z,77.50
2018-09-26T19:14:40.107Z,77.90
2018-09-26T19:17:08.756Z,78.00
2018-09-26T19:19:38.449Z,78.20
2018-09-26T19:22:14.845Z,78.30
2018-09-26T19:24:44.370Z,78.40
2018-09-26T19:27:14.765Z,78.50
2018-09-26T19:29:44.734Z,78.40
2018-09-26T19:32:13.642Z,79.60
2018-09-26T19:34:53.732Z,78.90
2018-09-26T19:37:27.583Z,79.10
2018-09-26T19:39:56.252Z,79.20
2018-09-26T19:42:25.060Z,79.40
2018-09-26T19:45:00.228Z,79.50
2018-09-26T19:47:29.714Z,79.80
2018-09-26T19:49:58.498Z,80.80
2018-09-26T19:52:27.143Z,81.10
2018-09-26T19:54:56.037Z,81.20
2018-09-26T19:57:24.876Z,80.90
2018-09-26T19:59:53.719Z,80.80
2018-09-26T20:02:22.535Z,81.30
2018-09-26T20:04:51.359Z,80.90
2018-09-26T20:07:20.110Z,81.00
2018-09-26T20:09:48.678Z,81.00
2018-09-26T20:12:17.136Z,80.90
2018-09-26T20:14:47.104Z,81.10
2018-09-26T20:17:15.517Z,80.90
2018-09-26T20:19:43.821Z,81.10
2018-09-26T20:22:12.514Z,81.20
2018-09-26T20:24:41.023Z,81.20
2018-09-26T20:27:09.715Z,81.40
2018-09-26T20:29:38.278Z,81.20
2018-09-26T20:32:06.600Z,81.80
2018-09-26T20:34:35.460Z,81.50
2018-09-26T20:37:03.914Z,81.50
2018-09-26T20:39:32.521Z,81.60
2018-09-26T20:42:00.961Z,81.80
2018-09-26T20:44:29.321Z,81.80
2018-09-26T20:46:58.025Z,82.30
2018-09-26T20:49:26.887Z,82.30
2018-09-26T20:51:55.335Z,82.60
2018-09-26T20:54:23.606Z,82.80
2018-09-26T20:56:52.240Z,82.90
2018-09-26T20:59:20.630Z,83.10
2018-09-26T21:01:49.068Z,83.00
2018-09-26T21:04:17.506Z,83.10
2018-09-26T21:06:45.838Z,83.90
2018-09-26T21:09:14.164Z,83.30
2018-09-26T21:11:42.601Z,83.50
2018-09-26T21:14:10.879Z,83.70
2018-09-26T21:16:39.433Z,83.90
2018-09-26T21:19:07.868Z,84.20
2018-09-26T21:21:36.342Z,84.30
2018-09-26T21:24:04.712Z,84.10
2018-09-26T21:26:33.453Z,84.00
2018-09-26T21:29:02.022Z,83.70
2018-09-26T21:31:30.351Z,83.70
2018-09-26T21:33:58.699Z,83.80
2018-09-26T21:36:26.992Z,83.90
2018-09-26T21:38:55.569Z,84.20
2018-09-26T21:41:23.991Z,84.20
2018-09-26T21:43:52.738Z,84.50
2018-09-26T21:46:21.128Z,84.60
2018-09-26T21:48:49.495Z,85.10
2018-09-26T21:51:18.111Z,85.30
2018-09-26T21:53:46.611Z,85.20
2018-09-26T21:56:14.963Z,85.40
2018-09-26T21:58:43.355Z,85.60
2018-09-26T22:01:17.411Z,85.80
2018-09-26T22:03:45.726Z,85.90
2018-09-26T22:06:14.082Z,86.50
2018-09-26T22:08:42.473Z,85.90
2018-09-26T22:11:10.885Z,85.80
2018-09-26T22:13:39.162Z,85.80
2018-09-26T22:16:07.524Z,85.70
2018-09-26T22:18:35.839Z,85.80
2018-09-26T22:21:04.217Z,85.90
2018-09-26T22:23:32.575Z,85.90
2018-09-26T22:26:00.903Z,85.80
2018-09-26T22:28:29.195Z,85.60
2018-09-26T22:30:57.555Z,85.80
2018-09-26T22:33:25.858Z,86.30
2018-09-26T22:35:54.178Z,86.20
2018-09-26T22:38:22.591Z,86.40
2018-09-26T22:40:50.916Z,86.30
2018-09-26T22:43:19.360Z,86.60
2018-09-26T22:45:47.693Z,86.70
2018-09-26T22:48:16.036Z,86.60
2018-09-26T22:50:44.365Z,86.40
2018-09-26T22:53:12.737Z,86.60
2018-09-26T22:55:41.061Z,86.60
2018-09-26T22:58:09.419Z,86.50
2018-09-26T23:00:37.791Z,86.50
2018-09-26T23:03:06.418Z,86.80
2018-09-26T23:05:34.738Z,86.80
2018-09-26T23:08:03.417Z,86.80
2018-09-26T23:10:31.728Z,87.00
2018-09-26T23:13:00.031Z,87.00
2018-09-26T23:15:28.614Z,87.10
2018-09-26T23:17:56.946Z,88.10
2018-09-26T23:20:25.307Z,87.70
2018-09-26T23:22:53.634Z,88.00
2018-09-26T23:25:22.033Z,88.10
2018-09-26T23:27:50.364Z,88.00
2018-09-26T23:30:18.659Z,88.10
2018-09-26T23:32:46.975Z,88.00
2018-09-26T23:35:15.265Z,88.30
2018-09-26T23:37:43.852Z,88.80
2018-09-26T23:40:12.154Z,88.70
2018-09-26T23:42:40.578Z,88.60
2018-09-26T23:45:09.190Z,88.90
2018-09-26T23:47:37.516Z,88.80
2018-09-26T23:50:05.839Z,88.90
2018-09-26T23:52:34.536Z,89.00
2018-09-26T23:55:02.854Z,88.90
2018-09-26T23:57:31.304Z,88.90
2018-09-26T23:59:59.898Z,89.10
